Time;durP1;ratioP1;P1;durP2;ratioP2;P2;SDS_P1;SDS_P2;PMS_P1;PMS_P2;Temp;Humidity;BMP_temperature;BMP_pressure;BME280_temperature;BME280_humidity;BME280_pressure;Samples;Min_cycle;Max_cycle;Signal;HPM_P1;HPM_P2
2022/08/31 00:03:54;;;;;;;;;;;;;;;18.41;65.75;102440.13;5115851;28;19934;-32
2022/08/31 00:06:22;;;;;;;;;;;;;;;18.41;65.77;102433.63;5108847;28;19928;-36
2022/08/31 00:08:50;;;;;;;;;;;;;;;18.43;66.19;102442.63;5114417;28;19924;-39
2022/08/31 00:11:26;;;;;;;;;;;;;;;18.43;65.53;102429.34;5115395;28;19923;-43
2022/08/31 00:13:55;;;;;;;;;;;;;;;18.42;64.65;102432.47;5097238;28;19923;-31
2022/08/31 00:16:24;;;;;;;;;;;;;;;18.41;64.95;102430.81;5114520;28;19969;-32
2022/08/31 00:18:52;;;;;;;;;;;;;;;18.40;65.33;102429.97;5115161;28;19931;-32
2022/08/31 00:21:21;;;;;;;;;;;;;;;18.38;64.62;102426.66;5114972;28;19935;-37
2022/08/31 00:23:49;;;;;;;;;;;;;;;18.36;64.39;102434.59;5114362;28;19931;-38
2022/08/31 00:26:17;;;;;;;;;;;;;;;18.38;64.93;102431.47;5115082;28;19930;-37
2022/08/31 00:28:46;;;;;;;;;;;;;;;18.36;65.74;102428.09;5114235;28;19934;-33
2022/08/31 00:31:14;;;;;;;;;;;;;;;18.36;66.24;102419.63;5114253;28;19924;-31
2022/08/31 00:33:42;;;;;;;;;;;;;;;18.35;66.20;102423.59;5096896;28;19923;-31
2022/08/31 00:36:11;;;;;;;;;;;;;;;18.33;66.69;102409.78;5114263;28;19932;-31
2022/08/31 00:38:39;;;;;;;;;;;;;;;18.31;66.52;102417.72;5114916;28;19923;-35
2022/08/31 00:41:08;;;;;;;;;;;;;;;18.29;66.07;102410.72;5114809;28;20026;-32
2022/08/31 00:43:37;;;;;;;;;;;;;;;18.27;66.26;102410.19;5113976;28;19923;-31
2022/08/31 00:46:06;;;;;;;;;;;;;;;18.23;66.39;102410.81;5114628;28;19928;-37
2022/08/31 00:48:35;;;;;;;;;;;;;;;18.22;66.11;102413.94;5114562;28;19923;-36
2022/08/31 00:51:02;;;;;;;;;;;;;;;18.22;66.26;102405.47;5114101;28;19928;-31
2022/08/31 00:53:30;;;;;;;;;;;;;;;18.20;66.68;102408.59;5114768;28;19946;-38
2022/08/31 00:55:58;;;;;;;;;;;;;;;18.19;67.34;102406.94;5114647;28;19924;-31
2022/08/31 00:58:26;;;;;;;;;;;;;;;18.19;68.26;102418.22;5113774;28;20300;-36
2022/08/31 01:00:53;;;;;;;;;;;;;;;18.19;68.89;102417.41;5093358;28;19931;-39
2022/08/31 01:03:23;;;;;;;;;;;;;;;18.18;69.04;102421.41;5114573;28;20296;-41
2022/08/31 01:05:51;;;;;;;;;;;;;;;18.17;69.29;102433.84;5113649;28;19924;-38
2022/08/31 01:08:19;;;;;;;;;;;;;;;18.17;69.11;102428.19;5114663;28;19927;-31
2022/08/31 01:10:57;;;;;;;;;;;;;;;18.17;69.67;102434.69;5114265;28;19938;-31
2022/08/31 01:13:25;;;;;;;;;;;;;;;18.18;70.49;102439.19;5113771;28;19927;-36
2022/08/31 01:15:57;;;;;;;;;;;;;;;18.19;71.23;102432.34;5114386;28;19974;-37
2022/08/31 01:18:26;;;;;;;;;;;;;;;18.19;71.85;102438.00;5113389;28;19969;-31
2022/08/31 01:20:57;;;;;;;;;;;;;;;18.18;72.11;102436.38;5114082;28;19924;-32
2022/08/31 01:23:29;;;;;;;;;;;;;;;18.18;73.00;102442.03;5113994;28;19928;-32
2022/08/31 01:25:58;;;;;;;;;;;;;;;18.17;73.75;102445.16;5094711;28;20368;-34
2022/08/31 01:28:25;;;;;;;;;;;;;;;18.17;74.16;102442.31;5113982;28;19928;-38
2022/08/31 01:30:58;;;;;;;;;;;;;;;18.14;74.58;102437.28;5113844;28;19962;-32
2022/08/31 01:33:26;;;;;;;;;;;;;;;18.11;74.64;102433.09;5091263;28;19924;-36
2022/08/31 01:35:55;;;;;;;;;;;;;;;18.10;74.85;102439.06;5091812;28;20426;-40
2022/08/31 01:38:22;;;;;;;;;;;;;;;18.08;75.72;102439.38;5093070;28;19928;-38
2022/08/31 01:40:52;;;;;;;;;;;;;;;18.07;75.76;102440.53;5090722;28;19960;-37
2022/08/31 01:43:20;;;;;;;;;;;;;;;18.06;76.40;102444.50;5081446;28;20373;-32
2022/08/31 01:45:48;;;;;;;;;;;;;;;18.03;76.65;102436.63;5091871;28;19931;-42
2022/08/31 01:48:16;;;;;;;;;;;;;;;18.01;76.44;102436.09;5091091;28;20367;-38
2022/08/31 01:50:45;;;;;;;;;;;;;;;17.97;76.92;102443.56;5091541;28;19970;-38
2022/08/31 01:53:13;;;;;;;;;;;;;;;17.96;76.78;102444.69;5092071;28;19935;-37
2022/08/31 01:55:41;;;;;;;;;;;;;;;17.93;76.62;102444.47;5091057;28;20274;-38
2022/08/31 01:58:10;;;;;;;;;;;;;;;17.90;76.46;102443.09;5090711;28;19924;-40
2022/08/31 02:00:56;;;;;;;;;;;;;;;17.86;76.26;102442.88;5090105;28;19938;-32
2022/08/31 02:03:24;;;;;;;;;;;;;;;17.83;76.61;102443.50;5091135;28;20014;-38
2022/08/31 02:05:52;;;;;;;;;;;;;;;17.81;76.31;102442.13;5091090;28;19931;-32
2022/08/31 02:08:18;;;;;;;;;;;;;;;17.78;76.19;102445.59;5088626;28;19963;-31
2022/08/31 02:10:46;;;;;;;;;;;;;;;17.74;76.28;102445.38;5089319;28;20394;-31
2022/08/31 02:13:16;;;;;;;;;;;;;;;17.73;75.97;102443.69;5089076;28;19936;-31
2022/08/31 02:15:44;;;;;;;;;;;;;;;17.71;76.47;102447.97;5089560;28;19993;-33
2022/08/31 02:18:11;;;;;;;;;;;;;;;17.70;76.53;102443.47;5090491;28;20442;-32
2022/08/31 02:20:40;;;;;;;;;;;;;;;17.69;76.67;102451.09;5084857;28;19924;-36
2022/08/31 02:23:07;;;;;;;;;;;;;;;17.68;77.14;102442.94;5090411;28;19978;-36
2022/08/31 02:25:35;;;;;;;;;;;;;;;17.67;77.52;102455.38;5091178;28;19928;-34
2022/08/31 02:28:03;;;;;;;;;;;;;;;17.65;77.68;102450.03;5091021;28;19970;-33
2022/08/31 02:30:32;;;;;;;;;;;;;;;17.62;77.67;102444.97;5091913;28;20018;-34
2022/08/31 02:33:00;;;;;;;;;;;;;;;17.61;77.19;102442.44;5099405;28;19970;-38
2022/08/31 02:35:27;;;;;;;;;;;;;;;17.58;76.79;102443.94;5094774;28;20018;-43
2022/08/31 02:37:56;;;;;;;;;;;;;;;17.55;76.86;102436.91;5111909;28;20022;-36
2022/08/31 02:40:24;;;;;;;;;;;;;;;17.53;76.86;102435.53;5094498;28;19973;-32
2022/08/31 02:42:52;;;;;;;;;;;;;;;17.50;76.72;102442.63;5111715;28;19930;-44
2022/08/31 02:45:25;;;;;;;;;;;;;;;17.46;76.44;102435.94;5084138;28;20277;-39
2022/08/31 02:48:01;;;;;;;;;;;;;;;17.44;75.83;102438.22;5094502;28;19934;-34
2022/08/31 02:50:37;;;;;;;;;;;;;;;17.42;75.02;102437.69;5093287;28;20012;-33
2022/08/31 02:53:05;;;;;;;;;;;;;;;17.40;74.56;102433.47;5094135;28;20367;-40
2022/08/31 02:55:34;;;;;;;;;;;;;;;17.36;74.65;102429.63;5094090;28;19962;-32
2022/08/31 02:58:02;;;;;;;;;;;;;;;17.34;74.34;102431.91;5093404;28;19981;-32
2022/08/31 03:00:29;;;;;;;;;;;;;;;17.34;73.99;102438.41;5094301;28;19977;-35
2022/08/31 03:02:57;;;;;;;;;;;;;;;17.32;73.90;102428.56;5094078;28;19924;-36
2022/08/31 03:05:27;;;;;;;;;;;;;;;17.32;73.61;102434.19;5092355;28;19966;-34
2022/08/31 03:07:54;;;;;;;;;;;;;;;17.30;73.69;102430.84;5093875;28;19928;-33
2022/08/31 03:10:23;;;;;;;;;;;;;;;17.25;73.42;102431.75;5094210;28;20060;-34
2022/08/31 03:12:51;;;;;;;;;;;;;;;17.24;73.22;102438.53;5093394;28;20300;-35
2022/08/31 03:15:20;;;;;;;;;;;;;;;17.22;73.43;102432.34;5094054;28;20030;-39
2022/08/31 03:17:48;;;;;;;;;;;;;;;17.19;73.55;102441.44;5112442;28;19940;-32
2022/08/31 03:20:21;;;;;;;;;;;;;;;17.18;73.66;102439.78;5093715;28;19928;-34
2022/08/31 03:22:50;;;;;;;;;;;;;;;17.14;73.82;102433.91;5093942;28;19960;-34
2022/08/31 03:25:19;;;;;;;;;;;;;;;17.14;74.17;102441.53;5093338;28;19924;-34
2022/08/31 03:27:47;;;;;;;;;;;;;;;17.11;74.76;102442.13;5093763;28;20376;-35
2022/08/31 03:30:16;;;;;;;;;;;;;;;17.10;75.36;102443.28;5092235;28;19993;-33
2022/08/31 03:32:51;;;;;;;;;;;;;;;17.09;75.92;102450.06;5090117;28;20022;-38
2022/08/31 03:35:23;;;;;;;;;;;;;;;17.08;76.48;102452.03;5092546;28;19984;-32
2022/08/31 03:37:53;;;;;;;;;;;;;;;17.09;76.90;102452.88;5111854;28;20288;-39
2022/08/31 03:40:20;;;;;;;;;;;;;;;17.07;77.58;102456.00;5092665;28;19946;-37
2022/08/31 03:42:48;;;;;;;;;;;;;;;17.06;77.62;102456.31;5093602;28;20346;-38
2022/08/31 03:45:15;;;;;;;;;;;;;;;17.07;78.09;102458.81;5093571;28;19963;-39
2022/08/31 03:47:43;;;;;;;;;;;;;;;17.07;78.40;102455.16;5093122;28;19991;-32
2022/08/31 03:50:14;;;;;;;;;;;;;;;17.07;78.39;102458.00;5082723;28;19967;-31
2022/08/31 03:53:03;;;;;;;;;;;;;;;17.07;78.76;102458.00;5093773;28;19946;-41
2022/08/31 03:55:31;;;;;;;;;;;;;;;17.06;79.02;102457.16;5093814;28;20293;-41
2022/08/31 03:57:59;;;;;;;;;;;;;;;17.05;79.55;102454.63;5093603;28;19967;-40
2022/08/31 04:00:27;;;;;;;;;;;;;;;17.04;79.61;102462.25;5092880;28;20433;-35
2022/08/31 04:03:00;;;;;;;;;;;;;;;17.01;78.49;102460.03;5084859;28;19939;-31
2022/08/31 04:05:33;;;;;;;;;;;;;;;16.98;78.12;102460.66;5115715;28;20420;-32
2022/08/31 04:08:22;;;;;;;;;;;;;;;16.99;77.66;102469.94;5105452;28;19945;-38
2022/08/31 04:11:26;;;;;;;;;;;;;;;16.96;77.66;102465.78;5114687;28;19947;-32
2022/08/31 04:14:32;;;;;;;;;;;;;;;16.93;78.17;102462.72;5069806;28;20069;-36
2022/08/31 04:17:18;;;;;;;;;;;;;;;16.90;78.63;102463.31;5115729;28;19964;-35
2022/08/31 04:19:51;;;;;;;;;;;;;;;16.85;79.10;102465.06;5097046;28;20010;-37
2022/08/31 04:22:41;;;;;;;;;;;;;;;16.83;79.75;102469.31;5096011;28;20236;-37
2022/08/31 04:25:36;;;;;;;;;;;;;;;16.78;80.17;102466.59;5103174;28;19924;-39
2022/08/31 04:28:04;;;;;;;;;;;;;;;16.75;80.54;102473.66;5115183;28;19924;-41
2022/08/31 04:30:31;;;;;;;;;;;;;;;16.69;80.52;102466.41;5095841;28;20014;-39
2022/08/31 04:33:00;;;;;;;;;;;;;;;16.64;80.33;102477.72;5094046;28;20194;-41
2022/08/31 04:35:28;;;;;;;;;;;;;;;16.59;80.34;102476.91;5114134;28;20448;-31
2022/08/31 04:37:56;;;;;;;;;;;;;;;16.53;80.43;102478.97;5096384;28;20403;-39
2022/08/31 04:40:23;;;;;;;;;;;;;;;16.47;80.44;102477.34;5095954;28;20337;-32
2022/08/31 04:42:54;;;;;;;;;;;;;;;16.43;80.33;102476.25;5094095;28;19930;-38
2022/08/31 04:45:23;;;;;;;;;;;;;;;16.37;80.55;102475.50;5094805;28;20004;-41
2022/08/31 04:47:52;;;;;;;;;;;;;;;16.34;80.82;102475.25;5112896;28;19931;-37
2022/08/31 04:50:20;;;;;;;;;;;;;;;16.29;80.97;102478.13;5111407;28;19938;-34
2022/08/31 04:53:07;;;;;;;;;;;;;;;16.26;81.03;102479.56;5094899;28;20407;-32
2022/08/31 04:55:38;;;;;;;;;;;;;;;16.22;81.59;102480.44;5095041;28;19992;-34
2022/08/31 04:58:08;;;;;;;;;;;;;;;16.18;82.03;102478.25;5094223;28;19927;-33
2022/08/31 05:00:36;;;;;;;;;;;;;;;16.14;82.10;102477.16;5095470;28;20179;-32
2022/08/31 05:03:21;;;;;;;;;;;;;;;16.11;82.37;102480.56;5095134;28;19972;-32
2022/08/31 05:05:52;;;;;;;;;;;;;;;16.07;82.20;102481.44;5095287;28;19930;-35
2022/08/31 05:08:20;;;;;;;;;;;;;;;16.04;82.28;102477.25;5113415;28;19927;-40
2022/08/31 05:10:48;;;;;;;;;;;;;;;16.02;82.26;102490.78;5092070;28;19927;-38
2022/08/31 05:13:17;;;;;;;;;;;;;;;15.99;82.54;102488.56;5103234;28;19935;-35
2022/08/31 05:15:45;;;;;;;;;;;;;;;15.97;82.34;102482.41;5093754;28;19931;-34
2022/08/31 05:18:19;;;;;;;;;;;;;;;15.95;82.61;102492.28;5093341;28;19980;-32
2022/08/31 05:20:58;;;;;;;;;;;;;;;15.92;83.16;102496.53;5093869;28;20031;-37
2022/08/31 05:23:26;;;;;;;;;;;;;;;15.93;83.27;102494.53;5113051;28;19924;-38
2022/08/31 05:25:53;;;;;;;;;;;;;;;15.92;83.87;102502.16;5094195;28;19927;-35
2022/08/31 05:28:23;;;;;;;;;;;;;;;15.90;84.32;102484.72;5094711;28;19974;-34
2022/08/31 05:30:51;;;;;;;;;;;;;;;15.90;84.95;102498.78;5082979;28;19924;-40
2022/08/31 05:33:30;;;;;;;;;;;;;;;15.89;85.70;102491.47;5093718;28;19924;-43
2022/08/31 05:36:00;;;;;;;;;;;;;;;15.89;85.83;102501.91;5094783;28;20348;-34
2022/08/31 05:38:28;;;;;;;;;;;;;;;15.88;85.92;102495.44;5113020;28;19930;-39
2022/08/31 05:40:58;;;;;;;;;;;;;;;15.90;86.18;102497.94;5094136;28;20341;-38
2022/08/31 05:43:27;;;;;;;;;;;;;;;15.90;86.75;102501.59;5111797;28;19931;-37
2022/08/31 05:45:55;;;;;;;;;;;;;;;15.91;87.24;102506.09;5093906;28;20388;-32
2022/08/31 05:48:23;;;;;;;;;;;;;;;15.92;87.17;102504.97;5094387;28;19930;-34
2022/08/31 05:50:59;;;;;;;;;;;;;;;15.94;87.41;102499.88;5128334;27;19978;-31
2022/08/31 05:53:27;;;;;;;;;;;;;;;15.96;87.44;102503.25;5127422;27;19931;-38
2022/08/31 05:55:58;;;;;;;;;;;;;;;15.99;87.10;102507.41;5092831;28;20058;-40
2022/08/31 05:58:27;;;;;;;;;;;;;;;15.99;87.44;102502.63;5111550;28;19923;-31
2022/08/31 06:00:54;;;;;;;;;;;;;;;16.01;87.82;102500.34;5108919;28;20018;-33
2022/08/31 06:03:49;;;;;;;;;;;;;;;16.05;87.74;102509.91;5107648;28;20015;-39
2022/08/31 06:06:17;;;;;;;;;;;;;;;16.06;88.23;102508.78;5093929;28;20325;-31
2022/08/31 06:08:44;;;;;;;;;;;;;;;16.10;87.99;102515.50;5110554;28;19923;-31
2022/08/31 06:11:14;;;;;;;;;;;;;;;16.12;88.16;102516.03;5093937;28;19930;-35
2022/08/31 06:13:43;;;;;;;;;;;;;;;16.15;88.46;102495.75;5093755;28;19923;-37
2022/08/31 06:16:10;;;;;;;;;;;;;;;16.18;88.09;102516.84;5093778;28;19997;-34
2022/08/31 06:18:39;;;;;;;;;;;;;;;16.21;88.37;102519.03;5093911;28;19951;-31
2022/08/31 06:21:08;;;;;;;;;;;;;;;16.23;87.90;102502.69;5092824;28;19932;-33
2022/08/31 06:23:36;;;;;;;;;;;;;;;16.27;87.78;102514.19;5093615;28;19930;-42
2022/08/31 06:26:05;;;;;;;;;;;;;;;16.29;87.76;102511.94;5092983;28;20011;-38
2022/08/31 06:28:35;;;;;;;;;;;;;;;16.33;87.35;102513.03;5092981;28;19985;-38
2022/08/31 06:31:10;;;;;;;;;;;;;;;16.38;87.95;102510.16;5093784;28;19939;-33
2022/08/31 06:33:40;;;;;;;;;;;;;;;16.42;87.69;102514.88;5093579;28;19923;-41
2022/08/31 06:36:17;;;;;;;;;;;;;;;16.47;87.46;102513.97;5092852;28;19931;-32
2022/08/31 06:39:11;;;;;;;;;;;;;;;16.54;87.22;102514.47;5078930;28;19923;-32
2022/08/31 06:42:02;;;;;;;;;;;;;;;16.61;86.83;102505.66;5097801;28;20018;-32
2022/08/31 06:44:49;;;;;;;;;;;;;;;16.68;86.41;102521.09;5106954;28;20032;-32
2022/08/31 06:47:20;;;;;;;;;;;;;;;16.78;86.43;102509.72;5093641;28;19959;-32
2022/08/31 06:49:51;;;;;;;;;;;;;;;16.91;86.14;102508.13;5086337;28;19969;-32
2022/08/31 06:52:20;;;;;;;;;;;;;;;17.07;86.08;102517.22;5092859;28;20079;-35
2022/08/31 06:55:03;;;;;;;;;;;;;;;17.33;85.80;102515.72;5087751;28;20027;-36
2022/08/31 06:57:49;;;;;;;;;;;;;;;17.74;85.07;102523.59;5109024;28;19946;-41
2022/08/31 07:00:20;;;;;;;;;;;;;;;18.22;83.00;102525.00;5111751;28;19947;-30
2022/08/31 07:03:21;;;;;;;;;;;;;;;18.79;80.61;102519.94;5090759;28;20389;-33
2022/08/31 07:05:51;;;;;;;;;;;;;;;19.47;79.87;102536.00;5093647;28;19924;-33
2022/08/31 07:08:19;;;;;;;;;;;;;;;20.21;75.95;102527.94;5093270;28;19931;-36
2022/08/31 07:10:48;;;;;;;;;;;;;;;20.90;72.82;102522.63;5092642;28;20351;-34
2022/08/31 07:13:15;;;;;;;;;;;;;;;21.65;70.96;102538.47;5092948;28;20010;-36
2022/08/31 07:15:44;;;;;;;;;;;;;;;22.32;64.83;102534.25;5111425;28;19924;-33
2022/08/31 07:18:13;;;;;;;;;;;;;;;22.66;60.86;102539.81;5092422;28;20326;-40
2022/08/31 07:20:41;;;;;;;;;;;;;;;22.99;60.18;102542.03;5119475;28;19930;-36
2022/08/31 07:23:11;;;;;;;;;;;;;;;23.34;57.15;102536.97;5089466;28;19974;-38
2022/08/31 07:25:45;;;;;;;;;;;;;;;23.80;57.21;102540.81;5092369;28;19989;-35
2022/08/31 07:28:13;;;;;;;;;;;;;;;24.19;53.74;102545.97;5111291;28;19928;-35
2022/08/31 07:30:41;;;;;;;;;;;;;;;24.45;53.54;102528.63;5093171;28;19927;-33
2022/08/31 07:33:16;;;;;;;;;;;;;;;24.76;52.34;102538.66;5092228;28;20336;-38
2022/08/31 07:35:53;;;;;;;;;;;;;;;25.17;50.30;102537.63;5093078;28;19945;-34
2022/08/31 07:44:19;;;;;;;;;;;;;;;25.73;46.72;102547.19;5095831;28;19927;-39
2022/08/31 07:46:47;;;;;;;;;;;;;;;25.72;46.88;102542.66;5095825;28;19924;-36
2022/08/31 07:49:18;;;;;;;;;;;;;;;25.71;45.68;102538.97;5096408;28;19977;-41
2022/08/31 07:52:02;;;;;;;;;;;;;;;25.83;44.81;102534.38;5091439;28;19924;-35
2022/08/31 07:55:06;;;;;;;;;;;;;;;25.76;44.31;102534.19;5024171;28;19945;-42
2022/08/31 07:57:53;;;;;;;;;;;;;;;25.83;45.28;102542.97;5091273;28;20253;-37
2022/08/31 08:00:23;;;;;;;;;;;;;;;26.10;46.27;102542.16;5095915;28;20542;-35
2022/08/31 08:02:50;;;;;;;;;;;;;;;26.42;46.44;102545.94;5096292;28;20010;-37
2022/08/31 08:05:24;;;;;;;;;;;;;;;26.57;44.17;102553.72;5096747;28;19935;-31
2022/08/31 08:08:12;;;;;;;;;;;;;;;26.45;43.58;102548.06;5114637;28;19946;-37
2022/08/31 08:11:02;;;;;;;;;;;;;;;26.64;44.46;102551.03;5112720;28;20403;-31
2022/08/31 08:13:33;;;;;;;;;;;;;;;26.72;42.89;102540.63;5114102;28;19935;-36
2022/08/31 08:16:17;;;;;;;;;;;;;;;26.98;43.90;102549.50;5096701;28;20009;-33
2022/08/31 08:19:04;;;;;;;;;;;;;;;27.02;41.74;102553.28;5113776;28;19953;-39
2022/08/31 08:21:33;;;;;;;;;;;;;;;27.11;43.36;102550.22;5084139;28;19924;-37
2022/08/31 08:24:01;;;;;;;;;;;;;;;27.22;41.14;102550.47;5114549;28;20293;-31
2022/08/31 08:26:49;;;;;;;;;;;;;;;27.46;42.29;102561.72;5104289;28;19938;-32
2022/08/31 08:29:37;;;;;;;;;;;;;;;27.79;42.08;102553.47;5095233;28;19935;-31
2022/08/31 08:32:07;;;;;;;;;;;;;;;28.13;41.25;102553.78;5096046;28;19923;-34
2022/08/31 08:34:39;;;;;;;;;;;;;;;28.34;40.23;102545.66;5113168;28;19938;-40
2022/08/31 08:37:09;;;;;;;;;;;;;;;28.41;40.00;102551.50;5103454;28;20015;-31
2022/08/31 08:39:36;;;;;;;;;;;;;;;28.59;40.65;102548.97;5114170;28;20373;-39
2022/08/31 08:42:11;;;;;;;;;;;;;;;28.80;39.08;102552.25;5095317;28;20054;-35
2022/08/31 08:44:40;;;;;;;;;;;;;;;29.02;39.12;102559.19;5110697;28;19971;-35
2022/08/31 08:47:13;;;;;;;;;;;;;;;28.80;37.98;102560.03;5114065;28;19924;-36
2022/08/31 08:49:48;;;;;;;;;;;;;;;28.18;37.10;102550.59;5094022;28;19935;-32
2022/08/31 08:52:25;;;;;;;;;;;;;;;28.17;39.36;102548.13;5094985;28;20404;-30
2022/08/31 08:54:55;;;;;;;;;;;;;;;28.37;38.96;102553.50;5094926;28;20282;-30
2022/08/31 08:57:24;;;;;;;;;;;;;;;28.55;37.71;102556.72;5113407;28;19955;-36
2022/08/31 08:59:56;;;;;;;;;;;;;;;28.79;37.62;102543.97;5095173;28;19947;-30
2022/08/31 09:02:28;;;;;;;;;;;;;;;28.84;37.62;102545.75;5095744;28;19927;-30
2022/08/31 09:05:03;;;;;;;;;;;;;;;28.73;37.04;102557.84;5113441;28;19923;-32
2022/08/31 09:08:00;;;;;;;;;;;;;;;28.85;36.19;102548.22;5091140;28;20432;-31
2022/08/31 09:10:30;;;;;;;;;;;;;;;28.52;35.37;102551.72;5077426;28;19955;-30
2022/08/31 09:13:08;;;;;;;;;;;;;;;28.37;35.78;102552.66;5094991;28;19924;-34
2022/08/31 09:15:43;;;;;;;;;;;;;;;28.03;35.66;102543.75;5095011;28;19976;-37
2022/08/31 09:18:23;;;;;;;;;;;;;;;28.02;35.61;102550.69;5094309;28;20113;-38
2022/08/31 09:21:05;;;;;;;;;;;;;;;28.06;36.00;102550.78;5095424;28;19975;-30
2022/08/31 09:23:39;;;;;;;;;;;;;;;28.37;37.15;102556.38;5095243;28;20343;-35
2022/08/31 09:26:08;;;;;;;;;;;;;;;28.51;33.50;102554.97;5092497;28;20035;-36
2022/08/31 09:28:53;;;;;;;;;;;;;;;28.48;33.95;102547.13;5102847;28;20396;-37
2022/08/31 09:31:31;;;;;;;;;;;;;;;28.35;35.03;102550.19;5111587;28;19928;-37
2022/08/31 09:33:59;;;;;;;;;;;;;;;28.38;34.63;102552.25;5104214;28;20349;-36
2022/08/31 09:36:32;;;;;;;;;;;;;;;28.31;33.62;102554.19;5112762;28;19934;-29
2022/08/31 09:39:14;;;;;;;;;;;;;;;28.18;34.12;102550.59;5112042;28;19928;-32
2022/08/31 09:41:42;;;;;;;;;;;;;;;28.43;35.52;102545.38;5110950;28;19924;-35
2022/08/31 09:44:19;;;;;;;;;;;;;;;28.60;34.92;102544.88;5112871;28;20304;-29
2022/08/31 09:46:47;;;;;;;;;;;;;;;28.65;33.94;102544.56;5109606;28;19939;-35
2022/08/31 09:49:18;;;;;;;;;;;;;;;28.45;33.61;102540.91;5112922;28;19924;-30
2022/08/31 09:51:46;;;;;;;;;;;;;;;28.41;33.64;102551.50;5111292;28;19954;-31
2022/08/31 09:57:11;;;;;;;;;;;;;;;28.55;34.95;102542.34;5112885;28;19931;-40
2022/08/31 09:59:40;;;;;;;;;;;;;;;28.90;35.57;102524.09;5111478;28;20311;-30
2022/08/31 10:02:10;;;;;;;;;;;;;;;29.17;32.88;102543.03;5112312;28;19956;-30
2022/08/31 10:04:49;;;;;;;;;;;;;;;29.04;32.83;102539.53;5112655;28;20300;-30
2022/08/31 10:07:27;;;;;;;;;;;;;;;28.88;31.03;102544.59;5110631;28;19923;-32
2022/08/31 10:09:58;;;;;;;;;;;;;;;28.67;31.90;102539.28;5112950;28;19924;-32
2022/08/31 10:12:32;;;;;;;;;;;;;;;28.67;33.34;102530.66;5112151;28;19924;-30
2022/08/31 10:15:03;;;;;;;;;;;;;;;28.95;33.36;102521.72;5109644;28;19927;-30
2022/08/31 10:17:33;;;;;;;;;;;;;;;29.25;33.72;102530.41;5112876;28;19924;-31
2022/08/31 10:20:06;;;;;;;;;;;;;;;29.12;32.39;102517.47;5111069;28;19928;-32
2022/08/31 10:22:39;;;;;;;;;;;;;;;29.13;32.65;102511.34;5112857;28;19924;-35
2022/08/31 10:25:14;;;;;;;;;;;;;;;29.36;33.03;102516.19;5112004;28;19938;-34
2022/08/31 10:27:47;;;;;;;;;;;;;;;29.60;32.36;102512.03;5111886;28;19927;-29
2022/08/31 10:30:22;;;;;;;;;;;;;;;29.79;32.55;102515.56;5111886;28;20303;-35
2022/08/31 10:32:53;;;;;;;;;;;;;;;29.80;32.20;102511.47;5112561;28;19965;-30
2022/08/31 10:35:24;;;;;;;;;;;;;;;29.78;31.90;102518.84;5111929;28;19927;-38
2022/08/31 10:37:55;;;;;;;;;;;;;;;29.89;31.48;102513.25;5112464;28;19935;-28
2022/08/31 10:40:28;;;;;;;;;;;;;;;29.85;30.89;102518.13;5112865;28;19924;-33
2022/08/31 10:43:03;;;;;;;;;;;;;;;29.68;31.38;102506.00;5112046;28;19924;-31
2022/08/31 10:45:33;;;;;;;;;;;;;;;29.68;32.08;102514.63;5111394;28;20023;-38
2022/08/31 10:48:03;;;;;;;;;;;;;;;29.85;32.40;102515.22;5112041;28;19924;-29
2022/08/31 10:50:37;;;;;;;;;;;;;;;30.00;31.84;102511.34;5112641;28;19924;-34
2022/08/31 10:53:12;;;;;;;;;;;;;;;30.03;31.01;102511.38;5112547;28;20388;-38
2022/08/31 10:55:45;;;;;;;;;;;;;;;29.79;31.13;102501.19;5111725;28;19945;-29
2022/08/31 10:58:19;;;;;;;;;;;;;;;29.66;31.32;102502.66;5112553;28;19928;-29
2022/08/31 11:00:51;;;;;;;;;;;;;;;29.73;31.41;102499.91;5112609;28;19955;-32
2022/08/31 11:03:26;;;;;;;;;;;;;;;29.74;31.69;102495.78;5105920;28;19924;-29
2022/08/31 11:05:57;;;;;;;;;;;;;;;29.60;30.41;102503.38;5112430;28;19924;-29
2022/08/31 11:08:34;;;;;;;;;;;;;;;29.52;31.88;102498.78;5112550;28;19982;-36
2022/08/31 11:11:05;;;;;;;;;;;;;;;29.55;32.37;102503.75;5111513;28;19957;-30
2022/08/31 11:13:39;;;;;;;;;;;;;;;29.68;31.18;102499.41;5116716;28;19927;-29
2022/08/31 11:16:16;;;;;;;;;;;;;;;29.77;31.88;102509.41;5116402;28;19924;-32
2022/08/31 11:18:53;;;;;;;;;;;;;;;29.79;30.19;102495.44;5109814;28;19930;-28
2022/08/31 11:21:34;;;;;;;;;;;;;;;29.72;31.35;102504.00;5116405;28;20456;-30
2022/08/31 11:24:11;;;;;;;;;;;;;;;29.61;30.76;102493.53;5109718;28;20396;-40
2022/08/31 11:26:57;;;;;;;;;;;;;;;29.31;31.20;102499.28;5116362;28;20372;-30
2022/08/31 11:29:32;;;;;;;;;;;;;;;29.21;31.68;102495.00;5112191;28;19934;-38
2022/08/31 11:32:06;;;;;;;;;;;;;;;29.44;31.95;102500.72;5113408;28;19940;-29
2022/08/31 11:34:46;;;;;;;;;;;;;;;29.56;31.31;102491.88;5116322;28;19928;-29
2022/08/31 11:37:33;;;;;;;;;;;;;;;29.41;31.14;102478.47;5113497;28;19967;-37
2022/08/31 11:40:01;;;;;;;;;;;;;;;29.34;31.83;102487.81;5115154;28;19924;-34
2022/08/31 11:42:46;;;;;;;;;;;;;;;29.36;30.69;102491.16;5115231;28;20399;-31
2022/08/31 11:45:27;;;;;;;;;;;;;;;29.43;31.03;102478.94;5114098;28;19928;-29
2022/08/31 11:47:56;;;;;;;;;;;;;;;29.54;32.00;102485.66;5115231;28;19924;-29
2022/08/31 11:50:54;;;;;;;;;;;;;;;29.33;30.86;102482.47;5114628;28;20363;-35
2022/08/31 11:53:27;;;;;;;;;;;;;;;29.23;30.71;102495.44;5094351;28;20293;-37
2022/08/31 11:55:58;;;;;;;;;;;;;;;29.14;30.92;102480.53;5114802;28;19924;-35
2022/08/31 11:58:30;;;;;;;;;;;;;;;29.02;31.42;102484.47;5115235;28;19931;-26
2022/08/31 12:01:01;;;;;;;;;;;;;;;28.90;32.36;102480.97;5115303;28;19924;-29
2022/08/31 12:03:38;;;;;;;;;;;;;;;28.77;32.40;102477.47;5111966;28;20011;-29
2022/08/31 12:06:08;;;;;;;;;;;;;;;28.86;32.98;102472.28;5114330;28;19931;-29
2022/08/31 12:08:45;;;;;;;;;;;;;;;29.03;32.57;102479.53;5115663;28;19924;-36
2022/08/31 12:11:18;;;;;;;;;;;;;;;28.96;31.46;102468.78;5115284;28;19931;-28
2022/08/31 12:13:50;;;;;;;;;;;;;;;28.77;32.36;102469.69;5113966;28;19931;-30
2022/08/31 12:16:26;;;;;;;;;;;;;;;28.63;32.98;102459.97;5115146;28;19927;-29
2022/08/31 12:19:01;;;;;;;;;;;;;;;28.64;33.49;102462.47;5114823;28;19974;-30
2022/08/31 12:24:31;;;;;;;;;;;;;;;28.63;35.15;102459.97;5111619;28;19923;-30
2022/08/31 12:27:02;;;;;;;;;;;;;;;28.53;36.00;102457.75;5114140;28;19924;-28
2022/08/31 12:29:30;;;;;;;;;;;;;;;28.34;35.89;102453.75;5115467;28;19931;-31
2022/08/31 12:32:06;;;;;;;;;;;;;;;28.21;36.35;102454.31;5114704;28;19927;-30
2022/08/31 12:34:39;;;;;;;;;;;;;;;28.00;36.66;102467.00;5111771;28;19924;-28
2022/08/31 12:37:21;;;;;;;;;;;;;;;27.87;37.04;102456.91;5115249;28;19923;-29
2022/08/31 12:39:49;;;;;;;;;;;;;;;27.88;37.57;102452.00;5112413;28;19924;-31
2022/08/31 12:42:17;;;;;;;;;;;;;;;27.79;38.10;102455.94;5113912;28;19928;-30
2022/08/31 12:44:48;;;;;;;;;;;;;;;27.72;38.96;102460.72;5113841;28;19923;-33
2022/08/31 12:47:23;;;;;;;;;;;;;;;27.58;38.15;102444.00;5114588;28;20380;-29
2022/08/31 12:50:01;;;;;;;;;;;;;;;27.58;38.18;102452.63;5113324;28;19923;-30
2022/08/31 12:52:38;;;;;;;;;;;;;;;27.53;37.96;102450.03;5114285;28;19924;-31
2022/08/31 12:55:13;;;;;;;;;;;;;;;27.56;37.73;102452.16;5112946;28;20348;-34
2022/08/31 12:57:57;;;;;;;;;;;;;;;27.45;38.15;102448.22;5114999;28;20297;-28
2022/08/31 13:00:26;;;;;;;;;;;;;;;27.24;37.55;102439.16;5111350;28;19939;-29
2022/08/31 13:02:57;;;;;;;;;;;;;;;27.14;38.38;102434.03;5113552;28;19924;-34
2022/08/31 13:05:26;;;;;;;;;;;;;;;26.97;38.91;102433.25;5112673;28;19977;-29
2022/08/31 13:07:54;;;;;;;;;;;;;;;26.91;39.54;102431.00;5114032;28;19923;-29
2022/08/31 13:10:27;;;;;;;;;;;;;;;26.83;38.45;102440.59;5113606;28;19924;-29
2022/08/31 13:12:56;;;;;;;;;;;;;;;26.66;38.96;102436.94;5114085;28;20303;-31
2022/08/31 13:15:25;;;;;;;;;;;;;;;26.51;39.89;102434.09;5111144;28;19931;-38
2022/08/31 13:17:53;;;;;;;;;;;;;;;26.31;40.23;102424.59;5112740;28;20403;-37